• Join FlightAware (Why Join?)
  • Login
  • US Flag 
11:32PM EDT


 

Airport Tracker/Info


-or-


 

Live Flight TrackerFlight Track Log ✈ N1207C ✈ 05-Apr-2014 ✈ KBWI - KLNS

Flight Track Log - Related Links

Times and Time Zones

All times are in EDT time to prevent confusion due to time zone crossing. See the N1207C flight status page for this flight to view local times or setup timezone preferences in your user account.

Time Position Orientation Groundspeed Altitude Reporting Facility
EDT Latitude Longitude Course Direction KTS MPH feet Rate Location/Type
08:12AM 39.2167 -76.6833 343° North 103 119 2,200  Level Potomac TRACON
08:12AM 39.2333 -76.7000 322° Northwest 86 99 3,200 960 Climbing Potomac TRACON
08:14AM 39.2667 -76.7000 360° North 132 152 4,100 360 Climbing Potomac TRACON
08:15AM 39.3167 -76.7167 346° North 159 183 4,000 -60 Descending Potomac TRACON
08:16AM 39.3500 -76.7000 21° North 166 191 4,000  Level Potomac TRACON
08:17AM 39.3594 -76.6279 North  Level FlightAware Approximate
08:17AM 39.4000 -76.6833 14° North 165 190 4,000  Level Potomac TRACON
08:18AM 39.4706 -76.6417 25° Northeast 167 192 4,000  Level New York Center
08:19AM 39.5175 -76.6169 22° Northeast 168 193 4,000  Level New York Center
08:20AM 39.5608 -76.5947 22° Northeast 168 193 4,000  Level New York Center
08:21AM 39.6019 -76.5731 22° Northeast 163 188 4,000  Level New York Center
08:22AM 39.6486 -76.5492 22° Northeast 164 189 4,000  Level New York Center
08:23AM 39.6894 -76.5267 23° Northeast 164 189 4,000  Level New York Center
08:24AM 39.7297 -76.5067 21° North 159 183 4,000  Level New York Center
08:25AM 39.7722 -76.4825 24° Northeast 155 178 4,000  Level New York Center
08:27AM 39.8150 -76.4603 22° Northeast 161 185 4,000  Level New York Center
08:28AM 39.8628 -76.4347 22° Northeast 171 197 4,000  Level New York Center
08:29AM 39.9025 -76.4142 22° Northeast 171 197 4,000  Level New York Center
08:30AM 39.9483 -76.3894 22° Northeast 158 182 4,000 -240 Level New York Center
08:31AM 39.9875 -76.3669 24° Northeast 158 182 3,600 -600 Descending New York Center
08:32AM 40.0239 -76.3236 42° Northeast 169 194 2,800 -780 Descending New York Center
08:33AM 40.0539 -76.2786 49° Northeast 163 188 2,100 -480 Descending New York Center
08:34AM 40.0833 -76.2372 47° Northeast 162 186 1,900 -240 Descending New York Center
08:36AM 40.1167 -76.2833 37° Northeast  Level FlightAware Approximate
08:43AM 40.1224 -76.2944 37° Northeast  Level Estimated
08:44AM 40.1224 -76.2944 124° Southeast  Level Estimated